Terminal Aerodrome Forecast
Issued by NWS

Home | Current Version | Previous Version | Text Only | Print | Product List | Glossary On
Versions: 1 2 3 4 5 6 7 8 9 10 11 12 13 14 15 16 17 18 19 20 21 22 23 24 25 26 27 28 29 30 31 32 33 34 35 36 37 38 39 40 41 42 43 44 45 46 47 48
351
FTUS43 KLOT 111121
TAFGYY
TAF
KGYY 111121Z 1112/1212 16012G18KT 5SM -SN BR SCT012 BKN030 OVC050
      TEMPO 1112/1116 2SM -SN BR SCT007 OVC012
     FM111600 18012G18KT 1 1/2SM -SN BR OVC007
     FM111900 19012KT 1/2SM SN OVC005
      TEMPO 1119/1122 1/2SM SN VV002
     FM120000 21008KT 2SM -SN OVC007
     FM120300 26010KT 5SM -SN BKN008 OVC015
     FM120600 28012KT P6SM BKN012 BKN025=

USA.gov is the U.S. government's official web portal to all federal, state and local government web resources and services.